createdAt,value
2019-05-09T00:00:34.480Z,20.70
2019-05-09T00:01:39.785Z,19.43
2019-05-09T00:02:46.219Z,19.43
2019-05-09T00:03:51.468Z,18.30
2019-05-09T00:04:56.724Z,18.13
2019-05-09T00:06:04.418Z,17.47
2019-05-09T00:07:08.979Z,17.40
2019-05-09T00:08:14.278Z,17.67
2019-05-09T00:09:19.567Z,16.87
2019-05-09T00:10:38.521Z,17.13
2019-05-09T00:11:33.566Z,17.37
2019-05-09T00:12:39.165Z,17.77
2019-05-09T00:13:44.460Z,16.93
2019-05-09T00:14:49.750Z,16.13
2019-05-09T00:15:54.832Z,15.97
2019-05-09T00:16:59.986Z,15.30
2019-05-09T00:18:05.167Z,15.83
2019-05-09T00:19:10.329Z,15.63
2019-05-09T00:20:33.224Z,16.27
2019-05-09T00:21:43.589Z,14.97
2019-05-09T00:22:48.496Z,15.07
2019-05-09T00:23:54.088Z,15.60
2019-05-09T00:24:59.515Z,15.07
2019-05-09T00:26:04.772Z,14.57
2019-05-09T00:27:09.998Z,15.03
2019-05-09T00:28:15.188Z,15.33
2019-05-09T00:29:26.768Z,14.37
2019-05-09T00:30:49.869Z,14.77
2019-05-09T00:32:03.467Z,13.30
2019-05-09T00:33:08.877Z,13.43
2019-05-09T00:34:20.046Z,12.93
2019-05-09T00:35:33.855Z,14.67
2019-05-09T00:36:38.897Z,12.33
2019-05-09T00:38:13.291Z,12.27
2019-05-09T00:39:18.640Z,10.83
2019-05-09T00:40:24.159Z,11.10
2019-05-09T00:41:29.379Z,11.30
2019-05-09T00:42:34.594Z,11.50
2019-05-09T00:43:43.526Z,10.90
2019-05-09T00:44:50.269Z,11.77
2019-05-09T00:46:16.459Z,9.83
2019-05-09T00:47:25.375Z,9.80
2019-05-09T00:48:36.418Z,9.57
2019-05-09T00:49:43.404Z,9.73
2019-05-09T00:50:48.530Z,9.47
2019-05-09T00:51:54.107Z,9.50
2019-05-09T00:52:59.431Z,9.57
2019-05-09T00:54:04.802Z,8.70
2019-05-09T00:55:10.527Z,9.37
2019-05-09T00:56:15.767Z,9.13
2019-05-09T00:57:36.029Z,8.37
2019-05-09T00:58:41.235Z,8.80
2019-05-09T00:59:46.459Z,7.77
2019-05-09T01:00:53.323Z,8.40
2019-05-09T01:01:58.610Z,7.90
2019-05-09T01:03:03.866Z,8.03
2019-05-09T01:04:09.164Z,7.67
2019-05-09T01:05:14.532Z,7.80
2019-05-09T01:06:19.814Z,7.77
2019-05-09T01:07:25.007Z,7.10
2019-05-09T01:08:30.156Z,7.93
2019-05-09T01:09:35.378Z,7.20
2019-05-09T01:10:40.585Z,7.60
2019-05-09T01:11:45.769Z,7.57
2019-05-09T01:12:51.034Z,7.33
2019-05-09T01:13:56.087Z,7.60
2019-05-09T01:15:03.320Z,7.70
2019-05-09T01:16:09.162Z,7.13
2019-05-09T01:17:14.354Z,6.90
2019-05-09T01:18:19.591Z,7.60
2019-05-09T01:19:24.792Z,6.80
2019-05-09T01:20:30.080Z,6.60
2019-05-09T01:21:35.285Z,7.17
2019-05-09T01:22:40.515Z,6.70
2019-05-09T01:23:45.750Z,6.53
2019-05-09T01:24:53.303Z,6.43
2019-05-09T01:25:57.795Z,7.40
2019-05-09T01:27:03.611Z,6.60
2019-05-09T01:28:09.111Z,6.67
2019-05-09T01:29:14.316Z,6.50
2019-05-09T01:30:19.978Z,5.63
2019-05-09T01:31:25.149Z,6.00
2019-05-09T01:32:49.310Z,6.87
2019-05-09T01:34:19.798Z,6.67
2019-05-09T01:35:25.043Z,6.03
2019-05-09T01:36:49.271Z,6.43
2019-05-09T01:37:54.647Z,6.60
2019-05-09T01:39:03.180Z,6.87
2019-05-09T01:40:08.420Z,6.50
2019-05-09T01:41:27.085Z,6.30
2019-05-09T01:42:23.953Z,6.50
2019-05-09T01:43:29.230Z,6.10
2019-05-09T01:44:34.520Z,5.87
2019-05-09T01:45:43.239Z,6.97
2019-05-09T01:46:48.299Z,6.63
2019-05-09T01:47:53.901Z,6.97
2019-05-09T01:48:59.161Z,7.20
2019-05-09T01:50:04.578Z,6.97
2019-05-09T01:51:09.897Z,8.37
2019-05-09T01:52:15.002Z,7.07
2019-05-09T01:53:26.306Z,8.57
2019-05-09T01:54:33.254Z,8.30
2019-05-09T01:55:56.393Z,7.43
2019-05-09T01:57:03.320Z,7.87
2019-05-09T01:58:08.540Z,7.57
2019-05-09T01:59:13.842Z,7.93
2019-05-09T02:00:19.142Z,7.10
2019-05-09T02:01:24.372Z,7.87
2019-05-09T02:02:29.639Z,7.57
2019-05-09T02:03:34.823Z,8.23
2019-05-09T02:04:40.003Z,6.90
2019-05-09T02:05:47.152Z,7.80
2019-05-09T02:06:53.750Z,7.10
2019-05-09T02:08:00.379Z,7.30
2019-05-09T02:09:07.290Z,7.10
2019-05-09T02:10:13.926Z,6.90
2019-05-09T02:11:19.261Z,7.50
2019-05-09T02:12:25.978Z,7.33
2019-05-09T02:13:33.628Z,7.37
2019-05-09T02:14:50.900Z,6.83
2019-05-09T02:16:18.188Z,7.03
2019-05-09T02:17:54.867Z,6.70
2019-05-09T02:19:05.530Z,6.60
2019-05-09T02:20:13.498Z,7.23
2019-05-09T02:21:20.515Z,7.30
2019-05-09T02:22:37.534Z,7.30
2019-05-09T02:23:45.612Z,6.67
2019-05-09T02:24:52.998Z,6.87
2019-05-09T02:25:57.965Z,6.53
2019-05-09T02:27:03.900Z,6.87
2019-05-09T02:28:09.463Z,6.70
2019-05-09T02:29:16.333Z,7.07
2019-05-09T02:30:25.101Z,6.83
2019-05-09T02:31:28.468Z,6.33
2019-05-09T02:32:34.706Z,6.70
2019-05-09T02:33:41.169Z,5.97
2019-05-09T02:34:49.082Z,6.73
2019-05-09T02:35:58.262Z,6.00
2019-05-09T02:37:01.234Z,6.60
2019-05-09T02:38:09.426Z,6.07
2019-05-09T02:39:13.614Z,6.43
2019-05-09T02:40:19.151Z,6.93
2019-05-09T02:41:24.310Z,6.20
2019-05-09T02:42:29.578Z,6.20
2019-05-09T02:43:38.793Z,6.80
2019-05-09T02:44:43.075Z,6.37
2019-05-09T02:46:03.587Z,6.40
2019-05-09T02:47:18.031Z,5.83
2019-05-09T02:48:23.608Z,6.40
2019-05-09T02:49:28.996Z,5.90
2019-05-09T02:50:34.166Z,6.83
2019-05-09T02:51:39.399Z,6.87
2019-05-09T02:52:44.652Z,6.03
2019-05-09T02:53:49.818Z,6.40
2019-05-09T02:54:58.081Z,6.37
2019-05-09T02:56:01.973Z,6.37
2019-05-09T02:57:09.318Z,6.93
2019-05-09T02:58:20.286Z,7.00
2019-05-09T02:59:30.472Z,7.13
2019-05-09T03:00:54.687Z,6.53
2019-05-09T03:02:34.150Z,6.70
2019-05-09T03:03:39.991Z,7.77
2019-05-09T03:04:45.195Z,7.30
2019-05-09T03:05:50.377Z,8.13
2019-05-09T03:06:55.602Z,6.83
2019-05-09T03:08:00.927Z,8.03
2019-05-09T03:09:08.850Z,7.57
2019-05-09T03:10:14.457Z,7.53
2019-05-09T03:11:19.776Z,8.13
2019-05-09T03:12:34.531Z,7.80
2019-05-09T03:13:31.842Z,7.90
2019-05-09T03:14:38.506Z,8.03
2019-05-09T03:15:44.484Z,7.70
2019-05-09T03:16:49.633Z,7.80
2019-05-09T03:17:54.808Z,7.83
2019-05-09T03:19:00.031Z,7.77
2019-05-09T03:20:09.485Z,7.50
2019-05-09T03:21:33.660Z,6.80
2019-05-09T03:22:39.592Z,6.90
2019-05-09T03:23:44.990Z,7.03
2019-05-09T03:24:50.205Z,7.17
2019-05-09T03:25:58.534Z,7.37
2019-05-09T03:27:08.554Z,7.63
2019-05-09T03:28:28.223Z,7.67
2019-05-09T03:29:43.185Z,7.13
2019-05-09T03:30:50.320Z,7.43
2019-05-09T03:31:59.855Z,7.30
2019-05-09T03:33:03.118Z,7.47
2019-05-09T03:34:09.312Z,7.33
2019-05-09T03:35:17.132Z,7.97
2019-05-09T03:36:21.829Z,7.67
2019-05-09T03:37:27.870Z,7.40
2019-05-09T03:38:33.077Z,7.70
2019-05-09T03:39:38.232Z,7.63
2019-05-09T03:40:43.487Z,7.67
2019-05-09T03:41:48.878Z,7.90
2019-05-09T03:42:57.382Z,7.43
2019-05-09T03:44:07.218Z,7.40
2019-05-09T03:45:13.481Z,7.50
2019-05-09T03:46:31.185Z,7.87
2019-05-09T03:47:45.276Z,7.60
2019-05-09T03:48:53.015Z,7.10
2019-05-09T03:50:17.469Z,7.43
2019-05-09T03:51:21.989Z,7.83
2019-05-09T03:52:27.980Z,7.60
2019-05-09T03:53:33.210Z,8.10
2019-05-09T03:54:38.364Z,7.93
2019-05-09T03:55:43.629Z,8.03
2019-05-09T03:56:54.004Z,8.00
2019-05-09T03:58:03.909Z,7.60
2019-05-09T03:59:09.052Z,7.83
2019-05-09T04:00:14.449Z,7.23
2019-05-09T04:01:19.842Z,8.63
2019-05-09T04:02:24.986Z,8.40
2019-05-09T04:03:30.200Z,7.70
2019-05-09T04:04:35.430Z,8.00
2019-05-09T04:05:54.461Z,8.43
2019-05-09T04:06:48.051Z,8.00
2019-05-09T04:07:53.444Z,8.90
2019-05-09T04:08:58.769Z,8.20
2019-05-09T04:10:04.010Z,8.30
2019-05-09T04:11:09.048Z,7.80
2019-05-09T04:12:14.295Z,8.37
2019-05-09T04:13:20.199Z,8.20
2019-05-09T04:14:28.186Z,9.17
2019-05-09T04:15:33.663Z,8.37
2019-05-09T04:16:38.768Z,8.60
2019-05-09T04:17:44.367Z,8.37
2019-05-09T04:18:50.131Z,9.37
2019-05-09T04:19:55.373Z,9.03
2019-05-09T04:21:00.667Z,9.07
2019-05-09T04:22:07.837Z,8.77
2019-05-09T04:23:12.703Z,9.60
2019-05-09T04:24:17.847Z,9.27
2019-05-09T04:25:27.748Z,10.33
2019-05-09T04:26:44.668Z,9.53
2019-05-09T04:27:50.699Z,9.57
2019-05-09T04:28:57.790Z,9.83
2019-05-09T04:30:06.276Z,9.30
2019-05-09T04:31:10.385Z,10.13
2019-05-09T04:32:15.686Z,9.80
2019-05-09T04:33:21.064Z,9.97
2019-05-09T04:34:27.554Z,9.03
2019-05-09T04:35:32.922Z,9.93
2019-05-09T04:36:40.903Z,10.57
2019-05-09T04:37:48.215Z,9.47
2019-05-09T04:38:53.047Z,10.40
2019-05-09T04:39:59.479Z,10.27
2019-05-09T04:41:07.267Z,10.57
2019-05-09T04:42:12.193Z,9.33
2019-05-09T04:43:26.760Z,10.20
2019-05-09T04:44:29.777Z,9.67
2019-05-09T04:45:47.356Z,10.13
2019-05-09T04:47:00.129Z,10.00
2019-05-09T04:48:01.513Z,9.83
2019-05-09T04:49:08.207Z,9.43
2019-05-09T04:50:15.417Z,10.00
2019-05-09T04:51:20.499Z,9.30
2019-05-09T04:52:27.821Z,9.47
2019-05-09T04:53:32.779Z,9.57
2019-05-09T04:54:38.948Z,9.43
2019-05-09T04:55:44.133Z,8.60
2019-05-09T04:56:49.276Z,8.97
2019-05-09T04:57:54.489Z,9.73
2019-05-09T04:58:59.681Z,8.20
2019-05-09T05:00:07.571Z,8.80
2019-05-09T05:01:23.537Z,8.37
2019-05-09T05:02:38.031Z,8.87
2019-05-09T05:03:48.766Z,7.77
2019-05-09T05:04:53.843Z,8.37
2019-05-09T05:05:59.015Z,8.73
2019-05-09T05:07:04.293Z,9.47
2019-05-09T05:08:09.448Z,9.10
2019-05-09T05:09:14.646Z,9.00
2019-05-09T05:10:19.893Z,9.20
2019-05-09T05:11:25.207Z,8.67
2019-05-09T05:12:30.303Z,9.23
2019-05-09T05:13:38.190Z,9.00
2019-05-09T05:14:42.333Z,9.17
2019-05-09T05:15:47.580Z,8.53
2019-05-09T05:17:05.259Z,8.80
2019-05-09T05:18:02.637Z,8.73
2019-05-09T05:19:07.888Z,7.80
2019-05-09T05:20:18.569Z,8.30
2019-05-09T05:21:23.980Z,8.33
2019-05-09T05:22:47.786Z,7.73
2019-05-09T05:24:10.999Z,7.03
2019-05-09T05:25:17.847Z,7.13
2019-05-09T05:26:24.308Z,6.73
2019-05-09T05:27:29.656Z,6.83
2019-05-09T05:28:34.916Z,6.57
2019-05-09T05:29:40.137Z,6.53
2019-05-09T05:30:47.601Z,5.63
2019-05-09T05:31:53.274Z,6.90
2019-05-09T05:33:04.028Z,5.50
2019-05-09T05:34:13.846Z,5.70
2019-05-09T05:35:48.121Z,5.57
2019-05-09T05:36:53.376Z,5.67
2019-05-09T05:37:58.593Z,6.07
2019-05-09T05:39:07.490Z,5.40
2019-05-09T05:40:13.155Z,5.57
2019-05-09T05:41:18.499Z,5.10
2019-05-09T05:42:23.792Z,5.13
2019-05-09T05:43:40.616Z,5.40
2019-05-09T05:44:38.382Z,5.03
2019-05-09T05:45:50.451Z,5.17
2019-05-09T05:47:18.952Z,5.27
2019-05-09T05:48:27.935Z,5.37
2019-05-09T05:49:33.414Z,4.93
2019-05-09T05:50:38.794Z,5.13
2019-05-09T05:51:50.164Z,4.70
2019-05-09T05:52:57.617Z,4.63
2019-05-09T05:54:02.705Z,4.73
2019-05-09T05:55:08.626Z,4.10
2019-05-09T05:56:13.966Z,5.10
2019-05-09T05:57:19.335Z,5.17
2019-05-09T05:58:24.608Z,4.40
2019-05-09T05:59:30.099Z,4.37
2019-05-09T06:00:37.625Z,3.90
2019-05-09T06:01:42.405Z,4.40
2019-05-09T06:02:47.965Z,4.10
2019-05-09T06:03:53.472Z,4.20
2019-05-09T06:04:58.839Z,3.97
2019-05-09T06:06:04.105Z,3.73
2019-05-09T06:07:09.316Z,3.97
2019-05-09T06:08:14.612Z,4.13
2019-05-09T06:09:19.798Z,4.23
2019-05-09T06:10:25.102Z,4.10
2019-05-09T06:11:33.527Z,4.20
2019-05-09T06:12:38.745Z,3.73
2019-05-09T06:13:56.230Z,3.67
2019-05-09T06:14:51.006Z,3.70
2019-05-09T06:15:58.465Z,4.10
2019-05-09T06:17:03.520Z,3.73
2019-05-09T06:18:08.901Z,3.77
2019-05-09T06:19:14.260Z,3.47
2019-05-09T06:20:19.549Z,3.50
2019-05-09T06:21:24.979Z,3.77
2019-05-09T06:22:32.563Z,3.40
2019-05-09T06:23:37.814Z,3.60
2019-05-09T06:24:43.056Z,3.57
2019-05-09T06:25:48.652Z,3.60
2019-05-09T06:26:55.032Z,3.73
2019-05-09T06:28:00.253Z,3.30
2019-05-09T06:29:07.996Z,3.50
2019-05-09T06:30:17.550Z,3.90
2019-05-09T06:31:22.785Z,4.20
2019-05-09T06:32:28.130Z,3.60
2019-05-09T06:33:45.013Z,3.70
2019-05-09T06:34:43.210Z,3.87
2019-05-09T06:35:48.469Z,3.63
2019-05-09T06:36:53.654Z,3.63
2019-05-09T06:37:59.164Z,4.13
2019-05-09T06:39:08.270Z,3.93
2019-05-09T06:40:18.359Z,3.43
2019-05-09T06:41:24.183Z,3.70
2019-05-09T06:42:29.413Z,4.17
2019-05-09T06:43:39.457Z,3.53
2019-05-09T06:45:01.463Z,3.40
2019-05-09T06:46:19.284Z,3.50
2019-05-09T06:47:28.411Z,4.00
2019-05-09T06:48:34.127Z,3.73
2019-05-09T06:49:41.853Z,3.97
2019-05-09T06:50:48.359Z,3.93
2019-05-09T06:51:53.706Z,3.97
2019-05-09T06:52:59.022Z,3.67
2019-05-09T06:54:04.414Z,3.47
2019-05-09T06:55:10.080Z,3.67
2019-05-09T06:56:17.590Z,4.40
2019-05-09T06:57:22.365Z,3.40
2019-05-09T06:58:34.825Z,3.57
2019-05-09T06:59:40.167Z,3.67
2019-05-09T07:00:51.509Z,3.90
2019-05-09T07:01:59.912Z,3.40
2019-05-09T07:03:15.597Z,3.33
2019-05-09T07:04:27.671Z,3.60
2019-05-09T07:05:53.891Z,5.27
2019-05-09T07:07:03.317Z,12.33
2019-05-09T07:08:13.539Z,3.20
2019-05-09T07:09:34.258Z,3.33
2019-05-09T07:10:39.159Z,3.37
2019-05-09T07:11:44.720Z,3.40
2019-05-09T07:12:49.997Z,3.40
2019-05-09T07:13:57.862Z,3.10
2019-05-09T07:15:04.581Z,3.23
2019-05-09T07:16:10.103Z,3.00
2019-05-09T07:17:15.407Z,3.60
2019-05-09T07:18:21.315Z,3.23
2019-05-09T07:19:28.038Z,3.40
2019-05-09T07:20:33.355Z,3.23
2019-05-09T07:21:59.256Z,3.43
2019-05-09T07:23:04.490Z,3.00
2019-05-09T07:24:09.741Z,3.57
2019-05-09T07:25:29.273Z,3.23
2019-05-09T07:26:37.218Z,3.27
2019-05-09T07:27:42.073Z,3.23
2019-05-09T07:28:48.361Z,3.30
2019-05-09T07:29:55.927Z,3.10
2019-05-09T07:31:23.196Z,3.23
2019-05-09T07:32:30.096Z,3.60
2019-05-09T07:34:13.065Z,3.17
2019-05-09T07:35:18.737Z,3.00
2019-05-09T07:36:27.697Z,2.67
2019-05-09T07:37:33.172Z,2.60
2019-05-09T07:38:38.667Z,2.83
2019-05-09T07:39:43.833Z,2.70
2019-05-09T07:40:49.097Z,3.00
2019-05-09T07:41:54.678Z,3.17
2019-05-09T07:42:59.954Z,2.83
2019-05-09T07:44:07.434Z,3.20
2019-05-09T07:45:12.191Z,2.83
2019-05-09T07:46:22.173Z,3.23
2019-05-09T07:47:28.189Z,2.97
2019-05-09T07:48:33.717Z,2.90
2019-05-09T07:49:39.283Z,2.80
2019-05-09T07:50:44.515Z,3.00
2019-05-09T07:51:49.769Z,2.83
2019-05-09T07:52:54.977Z,3.03
2019-05-09T07:54:00.188Z,3.07
2019-05-09T07:55:05.723Z,2.90
2019-05-09T07:56:11.158Z,2.60
2019-05-09T07:57:18.174Z,3.20
2019-05-09T07:58:23.605Z,2.67
2019-05-09T07:59:29.180Z,3.10
2019-05-09T08:00:38.205Z,2.70
2019-05-09T08:01:42.570Z,3.00
2019-05-09T08:02:47.843Z,2.80
2019-05-09T08:03:58.479Z,3.23
2019-05-09T08:05:02.993Z,2.77
2019-05-09T08:06:09.232Z,2.60
2019-05-09T08:07:14.563Z,3.47
2019-05-09T08:08:19.981Z,3.27
2019-05-09T08:09:27.813Z,2.83
2019-05-09T08:10:33.239Z,2.90
2019-05-09T08:11:38.906Z,3.27
2019-05-09T08:12:44.054Z,2.43
2019-05-09T08:13:49.301Z,3.00
2019-05-09T08:15:07.593Z,2.50
2019-05-09T08:16:01.430Z,2.60
2019-05-09T08:17:08.538Z,2.50
2019-05-09T08:18:14.606Z,2.40
2019-05-09T08:19:19.763Z,2.73
2019-05-09T08:20:27.158Z,2.63
2019-05-09T08:21:31.831Z,2.73
2019-05-09T08:22:41.249Z,2.70
2019-05-09T08:23:43.929Z,2.30
2019-05-09T08:24:49.109Z,2.47
2019-05-09T08:25:54.280Z,2.60
2019-05-09T08:26:59.482Z,2.57
2019-05-09T08:28:04.635Z,2.70
2019-05-09T08:29:09.782Z,2.50
2019-05-09T08:30:17.966Z,2.57
2019-05-09T08:31:23.095Z,2.20
2019-05-09T08:32:28.655Z,2.40
2019-05-09T08:33:35.131Z,2.50
2019-05-09T08:34:40.639Z,2.83
2019-05-09T08:35:49.851Z,2.67
2019-05-09T08:36:52.932Z,2.67
2019-05-09T08:37:58.543Z,2.97
2019-05-09T08:39:08.107Z,2.67
2019-05-09T08:40:13.314Z,2.60
2019-05-09T08:41:18.893Z,3.17
2019-05-09T08:42:24.107Z,3.73
2019-05-09T08:43:29.439Z,3.00
2019-05-09T08:44:34.746Z,3.00
2019-05-09T08:45:40.439Z,3.23
2019-05-09T08:46:47.975Z,3.30
2019-05-09T08:47:52.590Z,3.97
2019-05-09T08:48:57.865Z,3.43
2019-05-09T08:50:17.865Z,3.33
2019-05-09T08:51:38.826Z,3.23
2019-05-09T08:52:40.337Z,2.90
2019-05-09T08:53:47.993Z,3.43
2019-05-09T08:54:57.683Z,3.03
2019-05-09T08:56:02.029Z,3.20
2019-05-09T08:57:07.790Z,3.17
2019-05-09T08:58:13.172Z,3.47
2019-05-09T08:59:18.490Z,3.13
2019-05-09T09:00:23.820Z,3.47
2019-05-09T09:01:47.729Z,3.07
2019-05-09T09:02:37.654Z,3.30
2019-05-09T09:03:42.797Z,3.13
2019-05-09T09:04:48.812Z,3.20
2019-05-09T09:05:54.597Z,2.93
2019-05-09T09:06:59.737Z,3.20
2019-05-09T09:08:04.919Z,3.37
2019-05-09T09:09:10.095Z,3.00
2019-05-09T09:10:15.433Z,2.77
2019-05-09T09:11:20.477Z,3.37
2019-05-09T09:12:33.058Z,2.80
2019-05-09T09:13:37.616Z,3.03
2019-05-09T09:14:42.251Z,3.20
2019-05-09T09:16:05.152Z,2.57
2019-05-09T09:16:57.408Z,3.20
2019-05-09T09:18:01.871Z,2.50
2019-05-09T09:19:08.891Z,2.70
2019-05-09T09:20:13.925Z,2.40
2019-05-09T09:21:19.181Z,2.70
2019-05-09T09:22:24.457Z,2.90
2019-05-09T09:23:42.820Z,2.50
2019-05-09T09:24:37.531Z,2.53
2019-05-09T09:25:42.863Z,2.70
2019-05-09T09:26:48.162Z,2.37
2019-05-09T09:27:53.257Z,2.47
2019-05-09T09:28:58.482Z,2.30
2019-05-09T09:30:16.599Z,2.20
2019-05-09T09:31:10.577Z,2.73
2019-05-09T09:32:15.626Z,2.00
2019-05-09T09:33:20.796Z,1.93
2019-05-09T09:34:27.780Z,2.60
2019-05-09T09:35:33.023Z,1.90
2019-05-09T09:36:39.092Z,1.80
2019-05-09T09:37:48.878Z,2.20
2019-05-09T09:38:51.281Z,2.00
2019-05-09T09:39:58.203Z,1.70
2019-05-09T09:41:03.438Z,2.43
2019-05-09T09:42:09.195Z,1.90
2019-05-09T09:43:14.603Z,2.07
2019-05-09T09:44:22.483Z,1.90
2019-05-09T09:45:28.079Z,2.00
2019-05-09T09:46:33.603Z,2.33
2019-05-09T09:47:39.969Z,1.93
2019-05-09T09:48:47.833Z,2.30
2019-05-09T09:49:55.090Z,2.27
2019-05-09T09:50:59.338Z,2.13
2019-05-09T09:52:04.499Z,2.67
2019-05-09T09:53:09.750Z,2.03
2019-05-09T09:54:15.042Z,2.67
2019-05-09T09:55:20.382Z,2.20
2019-05-09T09:56:28.198Z,2.50
2019-05-09T09:57:32.779Z,2.47
2019-05-09T09:58:38.038Z,2.00
2019-05-09T09:59:53.073Z,2.20
2019-05-09T10:01:18.131Z,2.07
2019-05-09T10:02:29.585Z,2.30
2019-05-09T10:03:35.037Z,2.57
2019-05-09T10:04:40.151Z,2.20
2019-05-09T10:05:45.368Z,2.70
2019-05-09T10:06:53.080Z,2.43
2019-05-09T10:07:58.199Z,2.60
2019-05-09T10:09:03.634Z,2.47
2019-05-09T10:10:09.057Z,1.70
2019-05-09T10:11:14.320Z,2.83
2019-05-09T10:12:19.619Z,2.93
2019-05-09T10:13:24.983Z,3.07
2019-05-09T10:14:33.300Z,2.53
2019-05-09T10:16:28.366Z,2.33
2019-05-09T10:17:41.812Z,2.23
2019-05-09T10:19:33.933Z,2.60
2019-05-09T10:20:43.343Z,2.37
2019-05-09T10:21:51.608Z,1.97
2019-05-09T10:23:03.040Z,2.37
2019-05-09T10:24:03.891Z,1.90
2019-05-09T10:25:09.173Z,2.20
2019-05-09T10:26:14.341Z,2.03
2019-05-09T10:27:19.560Z,2.00
2019-05-09T10:28:24.736Z,2.20
2019-05-09T10:29:30.245Z,1.90
2019-05-09T10:30:37.997Z,1.70
2019-05-09T10:31:42.465Z,1.90
2019-05-09T10:32:47.748Z,1.70
2019-05-09T10:33:57.841Z,2.00
2019-05-09T10:35:02.805Z,1.63
2019-05-09T10:36:08.706Z,1.87
2019-05-09T10:37:15.091Z,1.73
2019-05-09T10:38:20.451Z,1.93
2019-05-09T10:39:27.665Z,1.67
2019-05-09T10:40:32.398Z,2.33
2019-05-09T10:41:37.697Z,3.00
2019-05-09T10:42:52.667Z,1.53
2019-05-09T10:44:03.269Z,3.67
2019-05-09T10:45:40.773Z,2.30
2019-05-09T10:47:02.058Z,2.17
2019-05-09T10:48:08.354Z,2.40
2019-05-09T10:49:13.665Z,2.20
2019-05-09T10:50:19.071Z,2.10
2019-05-09T10:51:24.379Z,2.50
2019-05-09T10:52:29.980Z,2.07
2019-05-09T10:53:35.118Z,2.23
2019-05-09T10:54:40.327Z,2.10
2019-05-09T10:55:47.986Z,1.93
2019-05-09T10:56:52.438Z,1.67
2019-05-09T10:58:02.270Z,2.00
2019-05-09T10:59:04.673Z,2.20
2019-05-09T11:00:10.233Z,1.90
2019-05-09T11:01:15.474Z,1.77
2019-05-09T11:02:20.681Z,2.40
2019-05-09T11:03:26.203Z,2.17
2019-05-09T11:04:31.520Z,2.40
2019-05-09T11:05:36.679Z,2.07
2019-05-09T11:06:41.846Z,2.40
2019-05-09T11:07:49.357Z,2.20
2019-05-09T11:08:53.801Z,2.30
2019-05-09T11:09:59.083Z,1.70
2019-05-09T11:11:06.109Z,1.97
2019-05-09T11:12:12.270Z,2.10
2019-05-09T11:13:18.341Z,2.03
2019-05-09T11:14:35.477Z,1.70
2019-05-09T11:15:30.371Z,2.13
2019-05-09T11:16:44.852Z,2.00
2019-05-09T11:17:42.886Z,2.00
2019-05-09T11:18:48.568Z,2.00
2019-05-09T11:19:53.942Z,2.07
2019-05-09T11:20:59.138Z,1.97
2019-05-09T11:22:04.254Z,2.40
2019-05-09T11:23:11.733Z,1.80
2019-05-09T11:24:18.816Z,2.00
2019-05-09T11:25:23.859Z,1.90
2019-05-09T11:26:29.088Z,1.90
2019-05-09T11:27:34.364Z,1.93
2019-05-09T11:28:39.611Z,1.93
2019-05-09T11:29:49.555Z,2.30
2019-05-09T11:30:52.934Z,2.57
2019-05-09T11:31:58.693Z,2.50
2019-05-09T11:33:04.139Z,2.33
2019-05-09T11:34:09.359Z,1.60
2019-05-09T11:35:14.663Z,1.60
2019-05-09T11:36:21.149Z,1.77
2019-05-09T11:37:26.585Z,1.70
2019-05-09T11:39:41.963Z,1.83
2019-05-09T11:40:45.558Z,2.30
2019-05-09T11:41:02.077Z,1.70
2019-05-09T11:41:50.810Z,2.87
2019-05-09T11:42:55.977Z,2.13
2019-05-09T11:44:01.311Z,2.17
2019-05-09T11:45:07.953Z,2.03
2019-05-09T11:46:13.187Z,2.17
2019-05-09T11:47:32.170Z,1.67
2019-05-09T11:48:25.128Z,1.73
2019-05-09T11:49:30.314Z,1.67
2019-05-09T11:50:35.507Z,1.87
2019-05-09T11:51:41.586Z,1.90
2019-05-09T11:52:48.941Z,1.50
2019-05-09T11:53:53.482Z,1.40
2019-05-09T11:54:59.701Z,2.07
2019-05-09T11:56:04.853Z,1.60
2019-05-09T11:57:10.038Z,1.90
2019-05-09T11:58:15.199Z,1.43
2019-05-09T11:59:20.345Z,1.60
2019-05-09T12:00:25.581Z,1.90
2019-05-09T12:01:30.802Z,1.63
2019-05-09T12:02:38.294Z,1.97
2019-05-09T12:03:42.735Z,2.00
2019-05-09T12:04:48.687Z,1.77
2019-05-09T12:05:53.991Z,1.50
2019-05-09T12:06:59.227Z,1.50
2019-05-09T12:08:04.489Z,1.37
2019-05-09T12:09:09.805Z,1.80
2019-05-09T12:10:15.070Z,1.83
2019-05-09T12:11:20.322Z,1.57
2019-05-09T12:12:28.132Z,1.60
2019-05-09T12:13:32.464Z,1.70
2019-05-09T12:14:38.223Z,1.40
2019-05-09T12:15:43.590Z,1.30
2019-05-09T12:16:48.819Z,1.77
2019-05-09T12:17:58.406Z,1.40
2019-05-09T12:19:00.942Z,1.70
2019-05-09T12:20:12.446Z,1.37
2019-05-09T12:21:13.851Z,1.40
2019-05-09T12:22:19.556Z,1.40
2019-05-09T12:23:24.764Z,2.10
2019-05-09T12:24:30.067Z,1.50
2019-05-09T12:25:35.270Z,1.87
2019-05-09T12:26:40.578Z,2.13
2019-05-09T12:27:48.502Z,1.70
2019-05-09T12:28:52.799Z,1.50
2019-05-09T12:29:58.368Z,1.50
2019-05-09T12:31:03.758Z,1.30
2019-05-09T12:32:09.130Z,1.10
2019-05-09T12:33:14.451Z,1.70
2019-05-09T12:34:19.756Z,1.10
2019-05-09T12:35:25.065Z,1.30
2019-05-09T12:36:30.422Z,1.00
2019-05-09T12:37:37.672Z,1.00
2019-05-09T12:38:46.069Z,1.10
2019-05-09T12:39:49.616Z,1.47
2019-05-09T12:40:54.891Z,1.30
2019-05-09T12:42:00.155Z,1.30
2019-05-09T12:43:05.392Z,1.20
2019-05-09T12:44:10.850Z,1.10
2019-05-09T12:45:18.029Z,1.20
2019-05-09T12:46:23.163Z,1.57
2019-05-09T12:47:29.573Z,1.10
2019-05-09T12:48:34.824Z,1.17
2019-05-09T12:49:40.085Z,1.30
2019-05-09T12:50:45.387Z,1.33
2019-05-09T12:51:50.626Z,1.30
2019-05-09T12:52:58.026Z,1.10
2019-05-09T12:54:02.770Z,1.40
2019-05-09T12:55:08.399Z,1.50
2019-05-09T12:56:13.756Z,1.73
2019-05-09T12:57:19.419Z,1.50
2019-05-09T12:58:27.959Z,1.30
2019-05-09T12:59:45.527Z,1.47
2019-05-09T13:00:40.077Z,1.07
2019-05-09T13:01:48.902Z,1.47
2019-05-09T13:02:53.276Z,1.80
2019-05-09T13:03:58.519Z,1.20
2019-05-09T13:05:03.907Z,1.73
2019-05-09T13:06:09.203Z,1.30
2019-05-09T13:07:15.278Z,1.40
2019-05-09T13:08:20.496Z,1.73
2019-05-09T13:09:28.631Z,1.43
2019-05-09T13:10:33.612Z,1.43
2019-05-09T13:11:39.273Z,1.37
2019-05-09T13:12:48.422Z,1.70
2019-05-09T13:13:52.611Z,1.37
2019-05-09T13:14:58.068Z,1.50
2019-05-09T13:16:13.988Z,1.70
2019-05-09T13:17:28.442Z,1.67
2019-05-09T13:18:51.298Z,1.93
2019-05-09T13:19:58.541Z,1.60
2019-05-09T13:21:03.422Z,1.50
2019-05-09T13:22:08.986Z,1.40
2019-05-09T13:23:14.514Z,1.67
2019-05-09T13:24:20.111Z,1.70
2019-05-09T13:25:25.481Z,1.50
2019-05-09T13:26:30.844Z,1.67
2019-05-09T13:27:38.740Z,1.50
2019-05-09T13:28:44.400Z,1.20
2019-05-09T13:29:49.828Z,1.53
2019-05-09T13:30:55.189Z,1.73
2019-05-09T13:32:00.440Z,1.60
2019-05-09T13:33:10.142Z,1.73
2019-05-09T13:34:12.452Z,1.70
2019-05-09T13:35:19.944Z,1.50
2019-05-09T13:36:24.462Z,1.63
2019-05-09T13:37:29.702Z,1.60
2019-05-09T13:38:34.885Z,1.87
2019-05-09T13:39:41.183Z,1.50
2019-05-09T13:40:53.043Z,1.80
2019-05-09T13:41:53.388Z,1.70
2019-05-09T13:42:58.732Z,1.67
2019-05-09T13:44:06.037Z,1.50
2019-05-09T13:45:11.040Z,1.47
2019-05-09T13:46:17.882Z,1.60
2019-05-09T13:47:23.431Z,1.73
2019-05-09T13:48:55.262Z,1.47
2019-05-09T13:49:35.564Z,1.60
2019-05-09T13:50:40.740Z,1.70
2019-05-09T13:51:58.447Z,1.70
2019-05-09T13:52:55.381Z,1.60
2019-05-09T13:54:00.544Z,1.47
2019-05-09T13:55:05.785Z,2.03
2019-05-09T13:56:11.190Z,1.73
2019-05-09T13:57:18.512Z,1.83
2019-05-09T13:58:23.278Z,1.50
2019-05-09T13:59:30.132Z,1.27
2019-05-09T14:00:35.673Z,1.47
2019-05-09T14:01:40.821Z,1.53
2019-05-09T14:02:48.506Z,1.77
2019-05-09T14:03:52.860Z,1.30
2019-05-09T14:04:58.515Z,1.40
2019-05-09T14:06:04.223Z,1.40
2019-05-09T14:07:09.637Z,1.20
2019-05-09T14:08:17.994Z,1.50
2019-05-09T14:09:21.640Z,1.40
2019-05-09T14:10:28.972Z,1.47
2019-05-09T14:11:34.011Z,1.57
2019-05-09T14:12:39.199Z,1.40
2019-05-09T14:13:44.373Z,1.53
2019-05-09T14:14:49.593Z,1.17
2019-05-09T14:15:54.732Z,1.33
2019-05-09T14:17:00.003Z,1.13
2019-05-09T14:18:05.253Z,1.30
2019-05-09T14:19:29.909Z,1.37
2019-05-09T14:20:17.999Z,1.13
2019-05-09T14:21:24.671Z,1.63
2019-05-09T14:22:30.009Z,1.30
2019-05-09T14:23:37.373Z,1.20
2019-05-09T14:24:41.942Z,1.20
2019-05-09T14:25:51.626Z,1.20
2019-05-09T14:26:54.087Z,1.33
2019-05-09T14:27:59.418Z,1.77
2019-05-09T14:29:04.855Z,1.10
2019-05-09T14:30:10.228Z,1.47
2019-05-09T14:31:15.544Z,1.13
2019-05-09T14:32:26.433Z,1.33
2019-05-09T14:33:32.562Z,1.80
2019-05-09T14:34:42.381Z,1.53
2019-05-09T14:35:44.774Z,1.80
2019-05-09T14:36:50.020Z,1.27
2019-05-09T14:37:55.439Z,1.30
2019-05-09T14:39:00.677Z,1.10
2019-05-09T14:40:10.023Z,1.00
2019-05-09T14:41:14.499Z,1.57
2019-05-09T14:42:19.784Z,1.20
2019-05-09T14:43:24.991Z,1.30
2019-05-09T14:44:30.279Z,1.30
2019-05-09T14:45:38.092Z,1.23
2019-05-09T14:46:43.489Z,1.33
2019-05-09T14:47:48.739Z,1.30
2019-05-09T14:48:53.987Z,1.10
2019-05-09T14:49:59.624Z,1.50
2019-05-09T14:51:04.899Z,1.17
2019-05-09T14:52:11.128Z,1.10
2019-05-09T14:53:18.168Z,1.67